»·PEaware :: ASA1013 KSEA-KGEG

ASA1013 :: KSEA-KGEG

FLIGHT INFORMATION

Flight Status: Arrived
Operator:
Alaska Airlines
More flights by this operator :: More flights under this callsign
Pilot: Joe C. (19058)
Aircraft: BOEING 737-800
(B738)
More flights by this aircraft type
Origin: KSEA Seattle-Tacoma Intl
United States
Destination: KGEG Spokane Intl
United States
More flights between these airports :: More routes between these airports
Route: ZADON ZELAK ZIRAN ZOOMR ZOOMR1
File this flight plan on PilotEdge
Remarks: PBN / A1B1C1D1S1S2 DOF / 180603 REG / N806SB OPR / ASA PER / C RMK / TCAS SIMBRIEF
Altitude:
(Current/Filed)
25,000ft
Speed:
(Current/Filed)
405kts
Departed: 03-Jun-18 11:22 AM
Arrived: 03-Jun-18 12:09 PM
Distance/Time
Traveled:
194nm/0:47
Distance/Time
To Go:
Arrived

Flight Plot

Page will automatically refresh every two minutes.


Map Options




Map Legend


Flown Route
Filed Route
Departure Airport
Arrival Airport
Navaid (VOR, NDB)
Fix

Horizontal Profiles

Position Reports

Time Latitude Longitude Heading Altitude Ground
Speed
03-Jun-18 11:03 47.441293 -122.304353 85 381ft 0kts
03-Jun-18 11:04 47.441293 -122.304353 85 381ft 0kts
03-Jun-18 11:05 47.441293 -122.304353 85 381ft 0kts
03-Jun-18 11:06 47.441293 -122.304353 85 381ft 0kts
03-Jun-18 11:07 47.441293 -122.304353 85 381ft 0kts
03-Jun-18 11:08 47.441293 -122.304353 85 381ft 0kts
03-Jun-18 11:09 47.441293 -122.304353 85 381ft 0kts
03-Jun-18 11:10 47.441293 -122.304353 85 381ft 0kts
03-Jun-18 11:11 47.441293 -122.304353 85 381ft 0kts
03-Jun-18 11:12 47.441293 -122.304353 85 381ft 0kts
03-Jun-18 11:13 47.441293 -122.304353 85 381ft 0kts
03-Jun-18 11:14 47.441282 -122.304551 85 381ft 2kts
03-Jun-18 11:15 47.441694 -122.304833 227 382ft 1kts
03-Jun-18 11:16 47.441742 -122.304728 234 382ft 0kts
03-Jun-18 11:17 47.441742 -122.304728 234 382ft 0kts
03-Jun-18 11:18 47.442941 -122.306315 358 384ft 15kts
03-Jun-18 11:19 47.449928 -122.306256 0 408ft 34kts
03-Jun-18 11:20 47.457498 -122.306187 0 438ft 30kts
03-Jun-18 11:21 47.463589 -122.306309 315 417ft 0kts
03-Jun-18 11:22 47.460503 -122.307836 180 430ft 69kts
03-Jun-18 11:23 47.415093 -122.306684 178 1690ft 205kts
03-Jun-18 11:24 47.360725 -122.302839 178 3504ft 231kts
03-Jun-18 11:25 47.334537 -122.226381 57 6123ft 282kts
03-Jun-18 11:26 47.380074 -122.127852 54 9157ft 306kts
03-Jun-18 11:27 47.431274 -122.019164 57 11628ft 343kts
03-Jun-18 11:28 47.486757 -121.900665 58 14426ft 361kts
03-Jun-18 11:29 47.545141 -121.775354 58 16985ft 380kts
03-Jun-18 11:30 47.628150 -121.674031 56 19263ft 398kts
03-Jun-18 11:31 47.637319 -121.526848 126 21428ft 362kts
03-Jun-18 11:32 47.586677 -121.395107 124 23468ft 379kts
03-Jun-18 11:33 47.554102 -121.242633 99 25054ft 420kts
03-Jun-18 11:34 47.551052 -121.062169 97 25036ft 457kts
03-Jun-18 11:35 47.547802 -120.873166 96 25028ft 460kts
03-Jun-18 11:36 47.544303 -120.683926 96 25026ft 460kts
03-Jun-18 11:37 47.543952 -120.664325 96 25024ft 460kts
03-Jun-18 11:38 47.543952 -120.664325 96 25024ft 460kts
03-Jun-18 11:39 47.543952 -120.664325 96 25024ft 460kts
03-Jun-18 11:40 47.543952 -120.664325 96 25024ft 460kts
03-Jun-18 11:41 47.540846 -120.511345 96 25016ft 460kts
03-Jun-18 11:42 47.526353 -120.326711 109 25006ft 451kts
03-Jun-18 11:43 47.497804 -120.150750 109 25009ft 450kts
03-Jun-18 11:44 47.468691 -119.971416 109 25008ft 450kts
03-Jun-18 11:45 47.439514 -119.792469 109 24986ft 431kts
03-Jun-18 11:46 47.412648 -119.628524 110 24019ft 404kts
03-Jun-18 11:47 47.385395 -119.465042 110 24010ft 409kts
03-Jun-18 11:48 47.382651 -119.295957 91 23968ft 425kts
03-Jun-18 11:49 47.390866 -119.124868 91 22081ft 410kts
03-Jun-18 11:50 47.398381 -118.959983 90 20070ft 396kts
03-Jun-18 11:51 47.405327 -118.800372 89 18064ft 383kts
03-Jun-18 11:52 47.411811 -118.645950 89 16065ft 372kts
03-Jun-18 11:53 47.417881 -118.496050 89 14072ft 362kts
03-Jun-18 11:54 47.423367 -118.358041 89 11997ft 311kts
03-Jun-18 11:55 47.437874 -118.241900 73 10013ft 288kts
03-Jun-18 11:56 47.455349 -118.130782 84 8040ft 269kts
03-Jun-18 11:57 47.465669 -118.029787 84 7037ft 232kts
03-Jun-18 11:58 47.475289 -117.935650 84 7036ft 231kts
03-Jun-18 11:59 47.484977 -117.841346 84 6991ft 237kts
03-Jun-18 12:00 47.494935 -117.744494 84 7022ft 235kts
03-Jun-18 12:01 47.504848 -117.648978 84 7018ft 234kts
03-Jun-18 12:02 47.514673 -117.554351 83 7020ft 223kts
03-Jun-18 12:03 47.522997 -117.474147 83 6989ft 179kts
03-Jun-18 12:04 47.531352 -117.402163 49 6998ft 186kts
03-Jun-18 12:05 47.575536 -117.376567 11 6199ft 159kts
03-Jun-18 12:06 47.605428 -117.399067 296 4450ft 149kts
03-Jun-18 12:07 47.616001 -117.458851 273 3506ft 157kts
03-Jun-18 12:08 47.616777 -117.520306 269 2398ft 144kts
03-Jun-18 12:09 47.618478 -117.533959 46 2369ft 19kts
03-Jun-18 12:10 47.621378 -117.532633 358 2360ft 14kts

Navigation Log

Ident Type
Flight plan parsing failed, navigation log unavailable